createdAt,value
2019-03-31T00:00:26.369Z,99154.17
2019-03-31T00:02:57.449Z,99151.86
2019-03-31T00:05:28.545Z,99148.73
2019-03-31T00:07:59.014Z,99155.00
2019-03-31T00:10:30.044Z,99153.95
2019-03-31T00:13:01.366Z,99148.58
2019-03-31T00:15:32.172Z,99145.18
2019-03-31T00:18:02.949Z,99136.59
2019-03-31T00:20:33.574Z,99143.20
2019-03-31T00:23:04.530Z,99138.53
2019-03-31T00:25:35.372Z,99137.89
2019-03-31T00:28:05.984Z,99131.06
2019-03-31T00:30:36.700Z,99136.47
2019-03-31T00:33:07.130Z,99133.70
2019-03-31T00:35:37.559Z,99131.31
2019-03-31T00:38:08.300Z,99137.91
2019-03-31T00:40:39.105Z,99126.78
2019-03-31T00:43:09.515Z,99122.80
2019-03-31T00:45:40.363Z,99122.88
2019-03-31T00:48:11.028Z,99123.16
2019-03-31T00:50:41.677Z,99110.73
2019-03-31T00:53:12.443Z,99106.21
2019-03-31T00:55:43.020Z,99106.21
2019-03-31T00:58:13.988Z,99105.42
2019-03-31T01:01:05.063Z,99105.05
2019-03-31T01:03:35.722Z,99099.01
2019-03-31T01:06:06.510Z,99101.39
2019-03-31T01:08:37.434Z,99100.16
2019-03-31T01:11:13.623Z,99096.69
2019-03-31T01:13:44.866Z,99095.00
2019-03-31T01:16:16.003Z,99089.55
2019-03-31T01:18:46.739Z,99081.35
2019-03-31T01:21:17.428Z,99081.94
2019-03-31T01:23:48.098Z,99079.03
2019-03-31T01:26:21.143Z,99073.95
2019-03-31T01:28:51.933Z,99067.98
2019-03-31T01:31:22.846Z,99067.61
2019-03-31T01:33:53.632Z,99068.61
2019-03-31T01:36:24.611Z,99067.61
2019-03-31T01:38:55.261Z,99061.16
2019-03-31T01:41:25.660Z,99061.53
2019-03-31T01:43:56.334Z,99065.23
2019-03-31T01:46:27.909Z,99065.53
2019-03-31T01:48:58.614Z,99061.86
2019-03-31T01:51:29.095Z,99060.30
2019-03-31T01:54:00.005Z,99057.17
2019-03-31T01:56:30.607Z,99057.69
2019-03-31T01:59:01.393Z,99049.94
2019-03-31T02:01:32.140Z,99055.26
2019-03-31T02:04:05.927Z,99056.71
2019-03-31T02:06:36.307Z,99064.68
2019-03-31T02:09:07.683Z,99059.30
2019-03-31T02:11:38.283Z,99049.11
2019-03-31T02:14:09.070Z,99057.60
2019-03-31T02:16:39.437Z,99056.16
2019-03-31T02:19:10.274Z,99062.52
2019-03-31T02:21:41.047Z,99055.70
2019-03-31T02:24:11.883Z,99056.59
2019-03-31T02:26:42.472Z,99047.02
2019-03-31T02:29:13.078Z,99051.78
2019-03-31T02:31:44.221Z,99046.95
2019-03-31T02:34:15.072Z,99045.71
2019-03-31T02:36:45.812Z,99039.19
2019-03-31T02:39:16.592Z,99042.35
2019-03-31T02:41:47.443Z,99045.34
2019-03-31T02:44:18.016Z,99043.80
2019-03-31T02:46:48.562Z,99038.41
2019-03-31T02:49:19.038Z,99039.03
2019-03-31T02:51:49.957Z,99035.64
2019-03-31T02:54:20.531Z,99032.80
2019-03-31T02:56:51.697Z,99035.09
2019-03-31T02:59:22.825Z,99034.78
2019-03-31T03:01:54.914Z,99030.19
2019-03-31T03:04:26.462Z,99024.27
2019-03-31T03:06:58.557Z,99019.42
2019-03-31T03:09:31.102Z,99018.30
2019-03-31T03:12:03.347Z,99021.96
2019-03-31T03:14:36.036Z,99024.78
2019-03-31T03:17:06.571Z,99023.23
2019-03-31T03:19:37.383Z,99017.72
2019-03-31T03:22:07.843Z,99020.39
2019-03-31T03:24:38.630Z,99020.39
2019-03-31T03:27:09.123Z,99022.86
2019-03-31T03:29:39.838Z,99012.36
2019-03-31T03:32:10.470Z,99014.05
2019-03-31T03:34:42.628Z,99011.75
2019-03-31T03:37:13.279Z,99013.91
2019-03-31T03:39:43.547Z,99005.61
2019-03-31T03:42:14.176Z,99013.05
2019-03-31T03:44:44.987Z,99002.70
2019-03-31T03:47:15.790Z,98998.03
2019-03-31T03:49:46.468Z,99004.17
2019-03-31T03:52:17.044Z,98993.27
2019-03-31T03:54:57.998Z,98990.22
2019-03-31T03:57:28.576Z,98997.89
2019-03-31T03:59:59.268Z,98996.90
2019-03-31T04:02:30.450Z,98992.00
2019-03-31T04:05:01.897Z,98993.98
2019-03-31T04:07:32.566Z,98995.14
2019-03-31T04:10:04.831Z,98993.16
2019-03-31T04:12:35.513Z,98988.63
2019-03-31T04:15:06.432Z,98991.02
2019-03-31T04:17:36.937Z,98988.27
2019-03-31T04:20:07.510Z,98987.20
2019-03-31T04:22:38.023Z,98990.86
2019-03-31T04:25:08.524Z,98984.20
2019-03-31T04:27:39.707Z,98984.44
2019-03-31T04:30:10.363Z,98985.59
2019-03-31T04:32:41.194Z,98978.83
2019-03-31T04:35:12.285Z,98977.30
2019-03-31T04:37:43.036Z,98981.00
2019-03-31T04:40:13.771Z,98971.23
2019-03-31T04:42:44.740Z,98967.55
2019-03-31T04:45:15.399Z,98964.80
2019-03-31T04:47:46.522Z,98954.66
2019-03-31T04:50:16.966Z,98957.50
2019-03-31T04:52:47.962Z,98953.88
2019-03-31T04:55:18.754Z,98947.20
2019-03-31T04:57:49.625Z,98953.02
2019-03-31T05:00:21.047Z,98954.55
2019-03-31T05:02:51.678Z,98945.34
2019-03-31T05:05:22.213Z,98941.64
2019-03-31T05:07:53.068Z,98937.47
2019-03-31T05:10:23.361Z,98929.78
2019-03-31T05:12:54.206Z,98924.25
2019-03-31T05:15:25.042Z,98925.29
2019-03-31T05:17:55.519Z,98919.64
2019-03-31T05:20:26.170Z,98918.47
2019-03-31T05:22:56.816Z,98919.83
2019-03-31T05:25:28.113Z,98928.46
2019-03-31T05:27:58.919Z,98924.14
2019-03-31T05:30:30.676Z,98918.56
2019-03-31T05:33:01.452Z,98920.82
2019-03-31T05:35:32.013Z,98914.41
2019-03-31T05:38:02.894Z,98925.08
2019-03-31T05:40:33.936Z,98920.25
2019-03-31T05:43:04.687Z,98916.63
2019-03-31T05:45:35.409Z,98917.84
2019-03-31T05:48:05.906Z,98913.73
2019-03-31T05:50:36.799Z,98909.84
2019-03-31T05:53:07.243Z,98906.86
2019-03-31T05:55:37.927Z,98902.44
2019-03-31T05:58:08.620Z,98901.17
2019-03-31T06:00:43.043Z,98902.42
2019-03-31T06:03:14.006Z,98907.77
2019-03-31T06:05:44.718Z,98907.02
2019-03-31T06:08:15.526Z,98894.05
2019-03-31T06:10:46.072Z,98895.27
2019-03-31T06:13:17.080Z,98890.78
2019-03-31T06:15:48.283Z,98892.19
2019-03-31T06:18:18.845Z,98889.11
2019-03-31T06:20:49.625Z,98887.73
2019-03-31T06:23:20.224Z,98883.61
2019-03-31T06:25:51.043Z,98886.52
2019-03-31T06:28:22.023Z,98889.14
2019-03-31T06:30:52.770Z,98877.45
2019-03-31T06:33:23.777Z,98882.79
2019-03-31T06:35:54.879Z,98876.30
2019-03-31T06:38:25.715Z,98872.83
2019-03-31T06:40:59.651Z,98863.84
2019-03-31T06:43:30.561Z,98857.48
2019-03-31T06:46:01.512Z,98865.06
2019-03-31T06:48:32.290Z,98861.22
2019-03-31T06:51:02.742Z,98851.91
2019-03-31T06:53:33.738Z,98859.67
2019-03-31T06:56:04.787Z,98854.33
2019-03-31T06:58:35.933Z,98865.25
2019-03-31T07:01:06.638Z,98852.78
2019-03-31T07:03:37.510Z,98852.76
2019-03-31T07:06:08.464Z,98852.83
2019-03-31T07:08:38.939Z,98842.52
2019-03-31T07:11:09.832Z,98838.43
2019-03-31T07:13:41.215Z,98829.85
2019-03-31T07:16:12.088Z,98830.17
2019-03-31T07:18:42.788Z,98826.31
2019-03-31T07:21:13.491Z,98823.66
2019-03-31T07:23:44.002Z,98825.29
2019-03-31T07:26:14.610Z,98820.34
2019-03-31T07:28:45.434Z,98817.56
2019-03-31T07:31:16.175Z,98822.63
2019-03-31T07:33:46.780Z,98822.77
2019-03-31T07:36:17.546Z,98820.05
2019-03-31T07:38:48.537Z,98807.61
2019-03-31T07:41:19.169Z,98805.55
2019-03-31T07:43:49.995Z,98800.44
2019-03-31T07:46:20.734Z,98801.90
2019-03-31T07:48:51.452Z,98803.47
2019-03-31T07:51:22.456Z,98797.25
2019-03-31T07:53:53.357Z,98799.28
2019-03-31T07:56:24.161Z,98798.86
2019-03-31T07:58:55.148Z,98791.84
2019-03-31T08:01:25.669Z,98803.05
2019-03-31T08:03:56.378Z,98795.07
2019-03-31T08:06:27.028Z,98789.95
2019-03-31T08:08:58.028Z,98795.00
2019-03-31T08:11:28.611Z,98791.78
2019-03-31T08:13:59.413Z,98791.92
2019-03-31T08:16:30.230Z,98794.48
2019-03-31T08:19:00.904Z,98799.63
2019-03-31T08:21:31.995Z,98797.53
2019-03-31T08:26:59.302Z,98787.83
2019-03-31T08:30:00.796Z,98791.41
2019-03-31T08:32:29.955Z,98787.50
2019-03-31T08:35:10.556Z,98780.84
2019-03-31T08:37:47.862Z,98783.00
2019-03-31T08:41:41.794Z,98766.66
2019-03-31T08:44:27.563Z,98768.48
2019-03-31T08:47:00.062Z,98773.30
2019-03-31T08:49:38.278Z,98765.05
2019-03-31T08:52:12.142Z,98762.20
2019-03-31T08:54:46.005Z,98769.73
2019-03-31T08:57:42.312Z,98761.97
2019-03-31T09:00:36.782Z,98752.17
2019-03-31T09:03:07.274Z,98752.88
2019-03-31T09:06:08.600Z,98748.55
2019-03-31T09:08:56.843Z,98758.38
2019-03-31T09:13:13.970Z,98752.64
2019-03-31T09:16:33.889Z,98739.23
2019-03-31T09:24:08.682Z,98746.88
2019-03-31T09:26:46.360Z,98728.06
2019-03-31T09:29:30.706Z,98736.66
2019-03-31T09:32:57.205Z,98732.47
2019-03-31T09:38:30.580Z,98728.60
2019-03-31T09:41:09.462Z,98723.91
2019-03-31T09:43:41.049Z,98732.16
2019-03-31T09:46:50.834Z,98719.41
2019-03-31T09:50:26.053Z,98726.96
2019-03-31T09:53:12.639Z,98719.16
2019-03-31T09:56:30.216Z,98708.14
2019-03-31T09:59:09.244Z,98720.70
2019-03-31T10:01:40.848Z,98712.55
2019-03-31T10:04:18.947Z,98705.70
2019-03-31T10:07:13.738Z,98696.16
2019-03-31T10:09:53.290Z,98708.36
2019-03-31T10:12:34.261Z,98690.73
2019-03-31T10:15:09.087Z,98692.16
2019-03-31T10:17:39.978Z,98689.48
2019-03-31T10:20:10.894Z,98690.30
2019-03-31T10:22:42.213Z,98693.41
2019-03-31T10:25:13.426Z,98695.55
2019-03-31T10:27:44.465Z,98682.35
2019-03-31T10:30:19.508Z,98693.76
2019-03-31T10:32:51.221Z,98703.44
2019-03-31T10:35:22.577Z,98685.44
2019-03-31T10:37:53.209Z,98693.51
2019-03-31T10:40:24.187Z,98683.52
2019-03-31T10:42:54.845Z,98693.91
2019-03-31T10:45:25.846Z,98678.17
2019-03-31T10:47:56.662Z,98684.98
2019-03-31T10:50:28.112Z,98683.41
2019-03-31T10:52:58.745Z,98678.64
2019-03-31T10:55:29.312Z,98678.86
2019-03-31T10:58:00.864Z,98687.71
2019-03-31T11:00:36.961Z,98668.51
2019-03-31T11:03:08.644Z,98675.33
2019-03-31T11:05:39.543Z,98658.25
2019-03-31T11:08:10.373Z,98661.19
2019-03-31T11:10:41.894Z,98661.28
2019-03-31T11:13:13.110Z,98663.58
2019-03-31T11:15:44.516Z,98652.75
2019-03-31T11:18:15.252Z,98661.37
2019-03-31T11:20:46.370Z,98654.84
2019-03-31T11:23:22.123Z,98659.61
2019-03-31T11:25:52.816Z,98664.60
2019-03-31T11:28:23.967Z,98653.38
2019-03-31T11:30:54.714Z,98655.42
2019-03-31T11:33:25.801Z,98638.00
2019-03-31T11:35:56.787Z,98650.66
2019-03-31T11:38:27.478Z,98652.90
2019-03-31T11:40:58.590Z,98638.20
2019-03-31T11:43:29.688Z,98650.98
2019-03-31T11:46:00.528Z,98642.30
2019-03-31T11:48:31.545Z,98658.00
2019-03-31T11:51:02.440Z,98634.59
2019-03-31T11:53:33.360Z,98640.91
2019-03-31T11:56:04.851Z,98645.80
2019-03-31T11:58:35.756Z,98648.03
2019-03-31T12:01:07.578Z,98634.73
2019-03-31T12:03:38.311Z,98631.02
2019-03-31T12:06:11.232Z,98637.03
2019-03-31T12:08:42.996Z,98627.91
2019-03-31T12:11:14.412Z,98631.19
2019-03-31T12:13:45.950Z,98624.37
2019-03-31T12:16:17.548Z,98620.15
2019-03-31T12:18:48.674Z,98620.43
2019-03-31T12:21:19.617Z,98621.94
2019-03-31T12:23:50.287Z,98616.16
2019-03-31T12:26:21.183Z,98601.48
2019-03-31T12:28:52.548Z,98616.75
2019-03-31T12:31:23.003Z,98614.60
2019-03-31T12:33:53.911Z,98621.60
2019-03-31T12:36:25.346Z,98626.11
2019-03-31T12:38:56.033Z,98624.67
2019-03-31T12:41:27.162Z,98609.64
2019-03-31T12:43:57.933Z,98619.34
2019-03-31T12:46:29.013Z,98594.81
2019-03-31T12:49:00.719Z,98610.12
2019-03-31T12:51:31.773Z,98607.42
2019-03-31T12:54:02.762Z,98604.08
2019-03-31T12:56:33.920Z,98609.13
2019-03-31T12:59:05.414Z,98609.98
2019-03-31T13:01:36.807Z,98609.27
2019-03-31T13:04:07.844Z,98595.10
2019-03-31T13:06:38.566Z,98609.89
2019-03-31T13:09:09.518Z,98594.80
2019-03-31T13:11:40.609Z,98597.67
2019-03-31T13:14:11.595Z,98611.33
2019-03-31T13:16:42.364Z,98597.94
2019-03-31T13:19:13.152Z,98608.72
2019-03-31T13:21:44.377Z,98602.56
2019-03-31T13:24:15.806Z,98594.36
2019-03-31T13:26:50.054Z,98604.37
2019-03-31T13:29:21.884Z,98585.78
2019-03-31T13:31:54.878Z,98590.61
2019-03-31T13:34:25.630Z,98589.66
2019-03-31T13:36:56.468Z,98604.25
2019-03-31T13:39:30.224Z,98577.45
2019-03-31T13:42:01.012Z,98581.63
2019-03-31T13:44:31.858Z,98576.09
2019-03-31T13:47:02.894Z,98582.87
2019-03-31T13:49:34.954Z,98587.45
2019-03-31T13:52:05.698Z,98571.69
2019-03-31T13:54:36.456Z,98576.56
2019-03-31T13:57:08.629Z,98576.98
2019-03-31T13:59:40.357Z,98573.05
2019-03-31T14:02:11.335Z,98574.16
2019-03-31T14:04:51.428Z,98553.91
2019-03-31T14:07:16.454Z,98568.02
2019-03-31T14:09:47.330Z,98570.45
2019-03-31T14:12:18.744Z,98561.27
2019-03-31T14:14:50.456Z,98557.47
2019-03-31T14:17:24.360Z,98559.61
2019-03-31T14:19:59.768Z,98558.56
2019-03-31T14:22:34.146Z,98547.09
2019-03-31T14:25:05.420Z,98542.56
2019-03-31T14:27:36.618Z,98539.36
2019-03-31T14:30:08.323Z,98543.66
2019-03-31T14:32:39.754Z,98544.94
2019-03-31T14:35:11.019Z,98545.27
2019-03-31T14:37:41.827Z,98560.25
2019-03-31T14:40:12.868Z,98539.14
2019-03-31T14:42:43.683Z,98537.96
2019-03-31T14:45:29.792Z,98535.45
2019-03-31T14:48:01.711Z,98533.67
2019-03-31T14:50:34.709Z,98534.17
2019-03-31T14:53:06.392Z,98522.63
2019-03-31T14:55:37.774Z,98517.00
2019-03-31T14:58:09.269Z,98516.63
2019-03-31T15:00:40.627Z,98517.29
2019-03-31T15:03:19.384Z,98519.19
2019-03-31T15:05:50.338Z,98512.42
2019-03-31T15:08:24.244Z,98507.44
2019-03-31T15:10:57.422Z,98503.65
2019-03-31T15:13:28.687Z,98503.06
2019-03-31T15:15:59.491Z,98499.89
2019-03-31T15:18:31.222Z,98504.42
2019-03-31T15:21:01.705Z,98499.36
2019-03-31T15:23:32.789Z,98504.48
2019-03-31T15:26:04.100Z,98499.99
2019-03-31T15:28:38.149Z,98492.35
2019-03-31T15:31:08.822Z,98500.84
2019-03-31T15:33:40.162Z,98501.22
2019-03-31T15:36:11.666Z,98497.80
2019-03-31T15:38:43.356Z,98496.92
2019-03-31T15:41:21.385Z,98496.99
2019-03-31T15:43:48.408Z,98495.73
2019-03-31T15:46:19.500Z,98503.53
2019-03-31T15:48:50.772Z,98498.95
2019-03-31T15:51:22.242Z,98495.05
2019-03-31T15:53:52.954Z,98500.13
2019-03-31T15:56:23.899Z,98490.04
2019-03-31T15:58:55.359Z,98487.06
2019-03-31T16:01:26.157Z,98482.52
2019-03-31T16:03:57.042Z,98478.72
2019-03-31T16:06:28.464Z,98484.48
2019-03-31T16:08:58.902Z,98476.08
2019-03-31T16:11:29.014Z,98483.30
2019-03-31T16:13:59.011Z,98479.67
2019-03-31T16:16:30.828Z,98479.97
2019-03-31T16:19:01.357Z,98480.50
2019-03-31T16:21:31.479Z,98477.59
2019-03-31T16:24:02.051Z,98477.78
2019-03-31T16:26:32.804Z,98479.66
2019-03-31T16:29:02.769Z,98478.00
2019-03-31T16:31:34.154Z,98473.33
2019-03-31T16:34:04.412Z,98477.63
2019-03-31T16:36:34.812Z,98475.49
2019-03-31T16:39:06.366Z,98480.64
2019-03-31T16:41:36.715Z,98480.77
2019-03-31T16:44:07.038Z,98477.92
2019-03-31T16:46:39.805Z,98469.80
2019-03-31T16:49:09.418Z,98466.44
2019-03-31T16:51:39.688Z,98452.66
2019-03-31T16:54:09.621Z,98447.17
2019-03-31T16:56:41.391Z,98464.33
2019-03-31T16:59:11.307Z,98461.61
2019-03-31T17:01:41.378Z,98459.91
2019-03-31T17:04:12.601Z,98464.25
2019-03-31T17:06:43.091Z,98468.69
2019-03-31T17:09:13.586Z,98472.30
2019-03-31T17:11:43.714Z,98473.04
2019-03-31T17:14:13.855Z,98474.52
2019-03-31T17:16:44.084Z,98465.94
2019-03-31T17:19:14.810Z,98480.42
2019-03-31T17:21:45.249Z,98474.16
2019-03-31T17:24:15.880Z,98474.50
2019-03-31T17:26:46.370Z,98481.10
2019-03-31T17:29:16.882Z,98481.23
2019-03-31T17:31:47.160Z,98476.72
2019-03-31T17:34:17.287Z,98475.52
2019-03-31T17:36:48.304Z,98479.61
2019-03-31T17:39:18.610Z,98478.42
2019-03-31T17:41:48.780Z,98481.48
2019-03-31T17:44:21.141Z,98480.16
2019-03-31T17:46:52.013Z,98485.14
2019-03-31T17:49:22.256Z,98481.69
2019-03-31T17:51:52.131Z,98482.51
2019-03-31T17:54:22.413Z,98484.80
2019-03-31T17:56:52.982Z,98489.86
2019-03-31T17:59:23.136Z,98483.05
2019-03-31T18:01:53.235Z,98479.98
2019-03-31T18:04:23.417Z,98479.39
2019-03-31T18:06:53.811Z,98479.81
2019-03-31T18:09:24.278Z,98480.91
2019-03-31T18:11:54.831Z,98478.78
2019-03-31T18:14:25.017Z,98481.77
2019-03-31T18:16:55.335Z,98485.88
2019-03-31T18:19:26.354Z,98482.55
2019-03-31T18:21:57.216Z,98479.70
2019-03-31T18:24:27.568Z,98478.86
2019-03-31T18:26:58.444Z,98483.66
2019-03-31T18:29:28.568Z,98495.86
2019-03-31T18:31:58.858Z,98483.41
2019-03-31T18:34:29.968Z,98475.49
2019-03-31T18:37:00.749Z,98492.84
2019-03-31T18:39:31.790Z,98489.45
2019-03-31T18:42:02.338Z,98497.33
2019-03-31T18:44:33.353Z,98541.28
2019-03-31T18:47:03.703Z,98582.34
2019-03-31T18:49:34.235Z,98596.61
2019-03-31T18:52:04.526Z,98585.72
2019-03-31T18:54:50.045Z,98593.84
2019-03-31T18:57:58.627Z,98605.43
2019-03-31T19:00:38.877Z,98599.23
2019-03-31T19:03:17.113Z,98603.83
2019-03-31T19:06:05.950Z,98603.01
2019-03-31T19:08:55.406Z,98610.75
2019-03-31T19:11:31.573Z,98609.58
2019-03-31T19:14:31.198Z,98615.03
2019-03-31T19:17:21.028Z,98611.20
2019-03-31T19:20:14.299Z,98620.59
2019-03-31T19:23:03.908Z,98618.19
2019-03-31T19:26:09.384Z,98642.19
2019-03-31T19:28:46.698Z,98645.88
2019-03-31T19:31:39.710Z,98643.86
2019-03-31T19:34:32.465Z,98637.75
2019-03-31T19:37:08.893Z,98635.40
2019-03-31T19:39:51.851Z,98643.47
2019-03-31T19:42:37.988Z,98633.58
2019-03-31T19:45:30.642Z,98644.43
2019-03-31T19:48:29.513Z,98651.34
2019-03-31T19:51:26.151Z,98645.38
2019-03-31T19:54:04.334Z,98645.74
2019-03-31T19:56:59.605Z,98658.96
2019-03-31T19:59:53.972Z,98644.28
2019-03-31T20:02:49.756Z,98641.30
2019-03-31T20:05:38.132Z,98648.56
2019-03-31T20:08:36.846Z,98652.10
2019-03-31T20:11:29.394Z,98663.59
2019-03-31T20:14:28.348Z,98667.17
2019-03-31T20:17:04.908Z,98672.01
2019-03-31T20:19:53.932Z,98665.61
2019-03-31T20:22:58.562Z,98680.29
2019-03-31T20:25:46.761Z,98681.95
2019-03-31T20:28:23.333Z,98674.24
2019-03-31T20:31:15.562Z,98676.38
2019-03-31T20:34:03.501Z,98677.81
2019-03-31T20:36:56.101Z,98683.17
2019-03-31T20:39:56.986Z,98680.39
2019-03-31T20:42:34.919Z,98678.41
2019-03-31T20:45:05.556Z,98684.97
2019-03-31T20:47:35.588Z,98685.13
2019-03-31T20:50:06.461Z,98688.92
2019-03-31T20:52:37.128Z,98685.23
2019-03-31T20:55:16.294Z,98683.32
2019-03-31T20:57:39.092Z,98689.36
2019-03-31T21:00:09.767Z,98697.80
2019-03-31T21:02:40.037Z,98697.64
2019-03-31T21:05:10.337Z,98683.05
2019-03-31T21:07:40.604Z,98686.98
2019-03-31T21:10:11.213Z,98681.84
2019-03-31T21:12:41.424Z,98683.26
2019-03-31T21:15:11.901Z,98685.03
2019-03-31T21:17:41.919Z,98679.98
2019-03-31T21:20:12.280Z,98689.13
2019-03-31T21:24:14.905Z,98692.48
2019-03-31T21:26:45.165Z,98701.27
2019-03-31T21:29:15.199Z,98701.14
2019-03-31T21:31:45.529Z,98699.52
2019-03-31T21:34:15.676Z,98699.51
2019-03-31T21:36:45.668Z,98704.50
2019-03-31T21:39:15.767Z,98696.47
2019-03-31T21:41:45.845Z,98707.41
2019-03-31T21:44:15.938Z,98705.92
2019-03-31T21:46:46.124Z,98695.58
2019-03-31T21:49:16.343Z,98702.50
2019-03-31T21:51:46.416Z,98708.02
2019-03-31T21:54:16.649Z,98711.50
2019-03-31T21:56:46.830Z,98716.77
2019-03-31T21:59:16.796Z,98718.09
2019-03-31T22:01:46.893Z,98724.71
2019-03-31T22:04:17.128Z,98737.22
2019-03-31T22:06:47.488Z,98725.17
2019-03-31T22:09:17.470Z,98729.20
2019-03-31T22:11:47.490Z,98734.20
2019-03-31T22:14:17.641Z,98735.32
2019-03-31T22:16:47.933Z,98735.50
2019-03-31T22:19:18.146Z,98733.63
2019-03-31T22:21:47.988Z,98738.61
2019-03-31T22:24:18.062Z,98732.58
2019-03-31T22:26:48.347Z,98742.86
2019-03-31T22:29:19.020Z,98746.40
2019-03-31T22:31:49.017Z,98758.08
2019-03-31T22:34:19.210Z,98763.02
2019-03-31T22:36:49.331Z,98763.94
2019-03-31T22:39:19.633Z,98763.55
2019-03-31T22:41:49.581Z,98765.02
2019-03-31T22:44:19.364Z,98764.55
2019-03-31T22:46:54.453Z,98759.66
2019-03-31T22:49:23.152Z,98767.87
2019-03-31T22:51:56.294Z,98769.51
2019-03-31T22:54:25.437Z,98767.63
2019-03-31T22:56:55.408Z,98769.67
2019-03-31T22:59:25.476Z,98769.84
2019-03-31T23:01:55.747Z,98773.47
2019-03-31T23:04:25.591Z,98775.95
2019-03-31T23:06:55.715Z,98777.27
2019-03-31T23:16:35.714Z,98789.63
2019-03-31T23:19:06.693Z,98789.75
2019-03-31T23:21:36.737Z,98791.83
2019-03-31T23:24:06.664Z,98791.86
2019-03-31T23:26:37.723Z,98787.86
2019-03-31T23:29:07.568Z,98792.11
2019-03-31T23:31:38.304Z,98793.66
2019-03-31T23:34:08.210Z,98803.63
2019-03-31T23:36:38.417Z,98803.63
2019-03-31T23:39:08.562Z,98809.05
2019-03-31T23:41:38.777Z,98799.01
2019-03-31T23:44:08.802Z,98799.58
2019-03-31T23:46:38.863Z,98804.84
2019-03-31T23:49:08.992Z,98800.75
2019-03-31T23:51:38.948Z,98805.78
2019-03-31T23:54:08.866Z,98807.28
2019-03-31T23:56:39.066Z,98805.44
2019-03-31T23:59:09.446Z,98808.70
